Time;durP1;ratioP1;P1;durP2;ratioP2;P2;SDS_P1;SDS_P2;PMS_P1;PMS_P2;Temp;Humidity;BMP_temperature;BMP_pressure;BME280_temperature;BME280_humidity;BME280_pressure;Samples;Min_cycle;Max_cycle;Signal;HPM_P1;HPM_P2
2023/02/22 00:15:21;;;;;;;25.50;8.10;;;;;;;4.89;78.76;98547.08;437164;1252;97999;-41
2023/02/22 00:25:28;;;;;;;23.00;8.70;;;;;;;4.85;78.92;98548.08;437243;1252;107023;-41
2023/02/22 00:35:35;;;;;;;26.60;7.80;;;;;;;4.76;79.01;98553.69;437246;1246;97972;-40
2023/02/22 00:45:43;;;;;;;35.10;10.00;;;;;;;4.68;79.08;98555.08;437277;1246;112127;-40
2023/02/22 00:55:51;;;;;;;36.40;7.70;;;;;;;4.59;79.28;98559.80;437240;1252;109346;-41
2023/02/22 01:05:58;;;;;;;25.80;8.90;;;;;;;4.59;79.30;98564.14;437176;1250;98800;-40
2023/02/22 01:26:12;;;;;;;26.70;7.70;;;;;;;4.78;79.41;98569.85;437251;1254;99215;-40
2023/02/22 01:36:21;;;;;;;27.40;8.20;;;;;;;4.74;79.43;98569.14;437248;1251;110955;-40
2023/02/22 01:46:30;;;;;;;29.80;8.20;;;;;;;4.61;79.44;98575.35;437276;1250;107779;-39
2023/02/22 01:56:40;;;;;;;33.20;13.20;;;;;;;4.53;79.62;98569.35;437348;1247;118275;-40
2023/02/22 02:06:48;;;;;;;53.20;25.20;;;;;;;4.51;79.47;98564.74;437229;1252;107283;-41
2023/02/22 02:17:01;;;;;;;28.10;7.60;;;;;;;4.55;79.50;98564.82;437827;1247;99247;31
2023/02/22 02:27:10;;;;;;;25.60;6.10;;;;;;;4.62;79.73;98566.38;435440;1254;111189;-40
2023/02/22 02:37:20;;;;;;;25.50;8.00;;;;;;;4.57;79.72;98566.02;435410;1254;107428;-39
2023/02/22 02:47:31;;;;;;;26.10;7.60;;;;;;;4.52;79.81;98565.67;435446;1254;116954;-40
2023/02/22 02:57:38;;;;;;;23.00;7.70;;;;;;;4.45;79.89;98564.57;435345;1254;108818;-41
2023/02/22 03:07:45;;;;;;;23.80;7.60;;;;;;;4.45;79.81;98565.55;435438;1253;99224;-40
2023/02/22 03:17:52;;;;;;;22.10;5.30;;;;;;;4.56;79.90;98572.42;435439;1254;111222;-41
2023/02/22 03:38:12;;;;;;;25.90;8.30;;;;;;;4.68;80.12;98580.83;435502;1252;98015;-39
2023/02/22 03:48:23;;;;;;;34.00;9.00;;;;;;;4.51;80.01;98586.02;435590;1252;108293;-40
2023/02/22 03:58:34;;;;;;;28.00;8.20;;;;;;;4.38;80.21;98585.32;435529;1252;97970;-41
2023/02/22 04:08:42;;;;;;;25.20;6.10;;;;;;;4.36;80.24;98587.52;435470;1253;113012;-39
2023/02/22 04:18:50;;;;;;;16.30;5.50;;;;;;;4.39;80.12;98591.16;435467;1252;107892;-41
2023/02/22 04:28:57;;;;;;;32.50;9.60;;;;;;;4.43;80.40;98591.75;435586;1251;98710;-40
2023/02/22 04:39:05;;;;;;;32.90;9.80;;;;;;;4.39;80.42;98594.34;435715;1249;108402;-39
2023/02/22 04:49:12;;;;;;;30.70;9.10;;;;;;;4.20;80.33;98592.63;435594;1251;98854;-40
2023/02/22 04:59:19;;;;;;;33.90;9.30;;;;;;;4.03;80.45;98590.23;435455;1249;113052;-40
2023/02/22 05:09:27;;;;;;;27.00;7.80;;;;;;;3.98;80.53;98596.06;435416;1249;108458;-40
2023/02/22 05:19:34;;;;;;;51.80;20.60;;;;;;;4.00;80.54;98604.45;435490;1252;99244;-40
2023/02/22 05:29:41;;;;;;;71.80;24.90;;;;;;;4.11;80.82;98607.87;435429;1250;111073;-39
2023/02/22 05:39:49;;;;;;;91.80;32.20;;;;;;;4.15;80.99;98620.98;435341;1250;107494;-40
2023/02/22 05:49:57;;;;;;;143.60;48.10;;;;;;;4.11;81.03;98631.05;435507;1252;97973;-40
2023/02/22 06:00:05;;;;;;;153.40;49.10;;;;;;;4.02;81.04;98634.84;435569;1251;111678;-40
2023/02/22 06:10:14;;;;;;;106.90;36.80;;;;;;;4.00;81.02;98641.65;435651;1250;106221;-40
2023/02/22 06:20:21;;;;;;;64.30;23.00;;;;;;;4.14;80.98;98649.59;435546;1249;99110;-41
2023/02/22 06:30:30;;;;;;;39.50;12.70;;;;;;;4.31;81.19;98658.48;435479;1249;108091;-40
2023/02/22 06:40:37;;;;;;;42.10;15.20;;;;;;;4.48;81.35;98659.02;435632;1252;98270;-40
2023/02/22 06:50:45;;;;;;;105.60;36.00;;;;;;;4.49;81.23;98668.92;435656;1250;113050;-40
2023/02/22 07:00:52;;;;;;;47.90;16.40;;;;;;;4.48;81.19;98679.19;435532;1252;106875;-41
2023/02/22 07:10:59;;;;;;;33.00;12.10;;;;;;;4.55;81.17;98688.80;435520;1252;99200;-40
2023/02/22 07:21:04;;;;;;;37.30;11.20;;;;;;;4.77;81.06;98689.98;435582;1251;111664;-40
2023/02/22 07:31:11;;;;;;;30.90;8.90;;;;;;;4.90;81.19;98694.94;435474;1250;108094;-40
2023/02/22 07:41:18;;;;;;;30.00;11.60;;;;;;;4.98;81.26;98698.63;435674;1253;97989;-40
2023/02/22 07:51:26;;;;;;;39.30;16.50;;;;;;;5.07;81.14;98696.99;435599;1252;108215;-40
2023/02/22 08:01:33;;;;;;;39.40;14.30;;;;;;;5.20;81.07;98701.42;435557;1251;99032;-39
2023/02/22 08:11:43;;;;;;;25.30;10.10;;;;;;;5.46;80.98;98696.39;435520;1252;112036;-40
2023/02/22 08:21:50;;;;;;;24.70;8.40;;;;;;;5.79;80.57;98696.15;435584;1251;109753;-40
2023/02/22 08:31:57;;;;;;;18.30;5.40;;;;;;;6.00;80.18;98700.48;435479;1252;98014;-40
2023/02/22 08:42:04;;;;;;;20.70;6.00;;;;;;;6.14;79.70;98690.37;435489;1252;108356;-40
2023/02/22 08:52:09;;;;;;;21.70;7.80;;;;;;;6.35;79.13;98695.17;435548;1250;98035;-40
2023/02/22 09:12:21;;;;;;;25.60;7.00;;;;;;;6.42;77.28;98705.73;435586;1250;98861;-38
2023/02/22 09:22:28;;;;;;;33.20;12.00;;;;;;;6.47;76.78;98713.09;435545;1250;98042;-40
2023/02/22 09:32:38;;;;;;;22.80;6.50;;;;;;;6.60;76.29;98722.58;435563;1249;112964;-40
2023/02/22 09:42:48;;;;;;;12.90;3.00;;;;;;;6.61;75.41;98723.68;435467;1252;108326;-39
2023/02/22 09:52:54;;;;;;;9.60;2.80;;;;;;;6.54;74.25;98721.82;435407;1252;97945;-40
2023/02/22 10:13:04;;;;;;;13.80;4.90;;;;;;;7.40;72.67;98716.70;435625;1250;98034;-39
2023/02/22 10:23:11;;;;;;;17.60;4.60;;;;;;;7.07;71.34;98713.70;435540;1250;111449;-39
2023/02/22 10:33:25;;;;;;;11.60;3.20;;;;;;;7.06;71.70;98708.20;435485;1250;106852;-41
2023/02/22 10:43:33;;;;;;;9.80;3.60;;;;;;;7.21;71.33;98709.10;435486;1254;98769;-40
2023/02/22 10:53:40;;;;;;;16.80;3.70;;;;;;;7.33;70.98;98707.71;435504;1250;109575;-40
2023/02/22 11:03:56;;;;;;;14.30;2.70;;;;;;;7.43;70.47;98698.31;435407;1251;97972;-41
2023/02/22 11:14:05;;;;;;;12.40;3.70;;;;;;;7.33;70.13;98697.95;435568;1250;111169;-39
2023/02/22 11:24:15;;;;;;;14.40;3.90;;;;;;;7.36;69.93;98698.02;435512;1252;107893;-39
2023/02/22 11:34:30;;;;;;;12.70;3.10;;;;;;;7.32;69.47;98692.61;435512;1252;98715;-39
2023/02/22 11:44:35;;;;;;;13.70;3.40;;;;;;;7.08;68.01;98688.45;435536;1253;110370;-39
2023/02/22 11:54:51;;;;;;;10.80;3.30;;;;;;;7.13;68.51;98683.95;435586;1254;108350;-43
2023/02/22 12:05:06;;;;;;;17.10;2.80;;;;;;;7.59;67.80;98674.66;435587;1262;98326;-40
2023/02/22 12:15:16;;;;;;;15.80;3.70;;;;;;;7.98;66.45;98679.73;435592;1263;110912;-40
2023/02/22 12:25:25;;;;;;;16.40;4.90;;;;;;;8.04;66.12;98682.86;435517;1254;107879;-39
2023/02/22 12:35:37;;;;;;;10.00;3.30;;;;;;;7.95;65.76;98679.46;435447;1254;98043;-41
2023/02/22 12:45:42;;;;;;;12.20;3.40;;;;;;;7.92;64.81;98679.08;435553;1250;108316;-40
2023/02/22 12:55:57;;;;;;;17.20;3.50;;;;;;;7.61;64.92;98675.52;435626;1251;97920;-40
2023/02/22 13:06:11;;;;;;;14.60;5.20;;;;;;;7.46;65.45;98673.95;435556;1251;110894;-40
2023/02/22 13:16:20;;;;;;;12.00;3.70;;;;;;;7.47;65.86;98671.80;435387;1254;107774;-40
2023/02/22 13:26:31;;;;;;;17.40;4.00;;;;;;;7.39;65.88;98671.99;435548;1253;98078;-40
2023/02/22 13:47:07;;;;;;;11.60;4.40;;;;;;;7.23;65.08;98671.44;435551;1252;107993;-40
2023/02/22 13:57:18;;;;;;;9.70;3.70;;;;;;;7.12;65.24;98673.21;435531;1255;98015;-39
2023/02/22 14:07:50;;;;;;;12.80;4.30;;;;;;;7.11;65.20;98676.73;435636;1251;111379;-40
2023/02/22 14:17:58;;;;;;;18.00;4.40;;;;;;;7.16;65.09;98671.50;435481;1251;107816;-40
2023/02/22 14:28:06;;;;;;;13.00;4.30;;;;;;;7.01;64.99;98670.84;435627;1254;99207;-40
2023/02/22 14:38:16;;;;;;;8.50;4.10;;;;;;;6.82;64.23;98673.17;435636;1250;110254;-40
2023/02/22 14:48:27;;;;;;;11.80;4.70;;;;;;;6.59;64.79;98673.44;435574;1254;108996;-40
2023/02/22 14:58:37;;;;;;;15.60;4.90;;;;;;;6.39;65.06;98674.52;435624;1249;98983;-39
2023/02/22 15:18:52;;;;;;;19.60;8.90;;;;;;;6.06;65.51;98675.61;435663;1251;108027;-39
2023/02/22 15:29:01;;;;;;;25.30;7.80;;;;;;;6.01;65.94;98673.80;435397;1253;403758;-41
2023/02/22 15:39:18;;;;;;;28.50;9.20;;;;;;;5.91;66.17;98680.70;435554;1254;110464;-40
2023/02/22 15:49:27;;;;;;;15.10;5.70;;;;;;;5.71;66.29;98678.81;435556;1251;107357;-39
2023/02/22 15:59:44;;;;;;;16.50;5.40;;;;;;;5.47;66.59;98680.05;435410;1251;98386;-40
2023/02/22 16:09:53;;;;;;;20.80;5.40;;;;;;;5.13;66.54;98685.62;435467;1251;112153;-40
2023/02/22 16:30:04;;;;;;;30.30;9.00;;;;;;;4.53;67.10;98705.95;435451;1249;99234;-40
2023/02/22 16:40:32;;;;;;;25.50;8.70;;;;;;;4.27;67.50;98711.35;435503;1251;111627;-38
2023/02/22 16:50:39;;;;;;;22.50;8.90;;;;;;;4.04;67.74;98718.53;435390;1251;108652;-39
2023/02/22 17:00:46;;;;;;;33.60;14.00;;;;;;;3.92;67.89;98720.06;435488;1255;97995;-40
2023/02/22 17:10:55;;;;;;;46.60;18.40;;;;;;;3.83;68.33;98719.31;435358;1254;113088;-40
2023/02/22 17:21:03;;;;;;;48.80;19.80;;;;;;;3.63;68.44;98722.14;435465;1253;107654;-39
2023/02/22 17:31:17;;;;;;;45.40;20.40;;;;;;;3.41;68.75;98723.03;435497;1250;98821;-40
2023/02/22 17:41:25;;;;;;;51.00;19.80;;;;;;;3.19;68.97;98729.72;435543;1250;111184;-40
2023/02/22 17:51:32;;;;;;;47.40;19.60;;;;;;;3.00;69.34;98735.04;435331;1253;107977;-41
2023/02/22 18:01:42;;;;;;;45.90;20.60;;;;;;;2.80;69.58;98737.19;435457;1254;98436;-39
2023/02/22 18:11:50;;;;;;;30.70;16.10;;;;;;;2.74;70.04;98738.21;435436;1254;113020;-40
2023/02/22 18:21:59;;;;;;;37.60;16.50;;;;;;;2.81;70.40;98735.73;435418;1251;107660;-44
2023/02/22 18:32:06;;;;;;;52.00;18.50;;;;;;;2.80;70.81;98736.82;435484;1254;98823;-40
2023/02/22 18:42:16;;;;;;;49.00;21.10;;;;;;;2.66;70.93;98745.04;435460;1254;111928;-40
2023/02/22 18:52:23;;;;;;;44.40;21.20;;;;;;;2.52;71.40;98747.60;435529;1250;108755;-40
2023/02/22 19:02:30;;;;;;;30.60;13.50;;;;;;;2.41;71.40;98749.17;435545;1250;98008;-39
2023/02/22 19:12:38;;;;;;;27.50;11.30;;;;;;;2.40;71.54;98751.40;435405;1250;109463;-40
2023/02/22 19:22:48;;;;;;;35.70;14.60;;;;;;;2.33;71.76;98755.88;435515;1251;98839;-39
2023/02/22 19:32:53;;;;;;;;;;;;;;;2.14;72.05;98761.27;435584;1250;110449;-39
2023/02/22 19:43:01;;;;;;;44.80;17.30;;;;;;;1.96;72.02;98761.64;435402;1251;108227;-39
2023/02/22 19:53:12;;;;;;;23.90;12.30;;;;;;;1.80;71.99;98761.75;435372;1250;98002;-39
2023/02/22 20:13:28;;;;;;;42.30;17.60;;;;;;;1.64;72.59;98774.17;435499;1254;98802;-41
2023/02/22 20:23:38;;;;;;;42.90;19.40;;;;;;;1.46;72.94;98777.20;435485;1250;110467;-40
2023/02/22 20:33:48;;;;;;;34.90;15.20;;;;;;;1.29;73.11;98779.83;435584;1253;108122;-40
2023/02/22 20:43:56;;;;;;;22.20;12.60;;;;;;;1.18;72.88;98784.15;435364;1250;99283;-40
2023/02/22 20:54:05;;;;;;;23.90;10.10;;;;;;;1.12;73.12;98787.17;435448;1254;112134;-39
2023/02/22 21:04:13;;;;;;;31.10;13.40;;;;;;;1.04;73.82;98786.67;435422;1254;107180;-41
2023/02/22 21:14:23;;;;;;;36.20;15.10;;;;;;;0.87;74.10;98790.17;435442;1253;98837;-40
2023/02/22 21:24:30;;;;;;;26.10;11.70;;;;;;;0.77;74.10;98786.11;435596;1254;110821;-39
2023/02/22 21:34:38;;;;;;;25.50;12.20;;;;;;;0.75;74.36;98780.59;435393;1250;108605;-40
2023/02/22 21:44:45;;;;;;;38.70;15.80;;;;;;;0.69;74.76;98775.83;435564;1253;99243;-41
2023/02/22 21:54:52;;;;;;;40.80;18.90;;;;;;;0.50;74.88;98771.10;435444;1250;108471;-39
2023/02/22 22:04:59;;;;;;;28.80;14.70;;;;;;;0.40;74.97;98770.45;435417;1250;98851;-40
2023/02/22 22:15:08;;;;;;;32.80;15.70;;;;;;;0.36;75.14;98771.36;435253;1257;112140;-40
2023/02/22 22:25:16;;;;;;;42.50;19.00;;;;;;;0.29;75.69;98767.98;435576;1250;107787;-40
2023/02/22 22:35:23;;;;;;;50.90;21.30;;;;;;;0.15;75.66;98756.43;435401;1251;98796;-40
2023/02/22 22:45:31;;;;;;;30.10;14.90;;;;;;;0.10;75.84;98746.94;435451;1250;112198;-39
2023/02/22 23:05:47;;;;;;;39.80;16.70;;;;;;;0.17;76.59;98752.17;435608;1250;98018;-39
2023/02/22 23:15:54;;;;;;;42.20;17.90;;;;;;;0.11;76.93;98754.41;435310;1254;109171;-38
2023/02/22 23:36:11;;;;;;;22.20;12.50;;;;;;;-0.02;76.89;98752.79;435297;1250;112313;-39
2023/02/22 23:46:18;;;;;;;29.20;13.90;;;;;;;0.03;77.15;98743.33;435285;1254;107508;-40
2023/02/22 23:56:27;;;;;;;42.50;18.60;;;;;;;0.07;77.07;98737.39;435577;1249;99303;-40
